sensor_id;sensor_type;location;lat;lon;timestamp;P1;durP1;ratioP1;P2;durP2;ratioP2
12118;SDS011;6123;48.864;9.200;2022-07-10T00:00:41;5.55;;;5.15;;
12118;SDS011;6123;48.864;9.200;2022-07-10T00:03:07;5.60;;;5.10;;
12118;SDS011;6123;48.864;9.200;2022-07-10T00:05:33;4.93;;;4.53;;
12118;SDS011;6123;48.864;9.200;2022-07-10T00:08:01;5.85;;;5.28;;
12118;SDS011;6123;48.864;9.200;2022-07-10T00:10:27;5.70;;;5.30;;
12118;SDS011;6123;48.864;9.200;2022-07-10T00:12:54;7.47;;;5.82;;
12118;SDS011;6123;48.864;9.200;2022-07-10T00:15:19;6.03;;;5.32;;
12118;SDS011;6123;48.864;9.200;2022-07-10T00:17:46;6.38;;;5.78;;
12118;SDS011;6123;48.864;9.200;2022-07-10T00:20:12;7.47;;;5.85;;
12118;SDS011;6123;48.864;9.200;2022-07-10T00:22:39;6.35;;;5.88;;
12118;SDS011;6123;48.864;9.200;2022-07-10T00:25:08;7.32;;;6.70;;
12118;SDS011;6123;48.864;9.200;2022-07-10T00:27:35;6.75;;;6.15;;
12118;SDS011;6123;48.864;9.200;2022-07-10T00:30:02;6.85;;;6.30;;
12118;SDS011;6123;48.864;9.200;2022-07-10T00:32:28;7.05;;;6.45;;
12118;SDS011;6123;48.864;9.200;2022-07-10T00:34:56;7.25;;;6.53;;
12118;SDS011;6123;48.864;9.200;2022-07-10T00:37:22;6.25;;;5.85;;
12118;SDS011;6123;48.864;9.200;2022-07-10T00:39:48;7.30;;;6.70;;
12118;SDS011;6123;48.864;9.200;2022-07-10T00:42:14;6.85;;;6.35;;
12118;SDS011;6123;48.864;9.200;2022-07-10T00:44:40;7.60;;;6.90;;
12118;SDS011;6123;48.864;9.200;2022-07-10T00:47:08;7.38;;;6.78;;
12118;SDS011;6123;48.864;9.200;2022-07-10T00:49:39;7.57;;;6.82;;
12118;SDS011;6123;48.864;9.200;2022-07-10T00:52:11;6.60;;;6.10;;
12118;SDS011;6123;48.864;9.200;2022-07-10T00:54:39;6.85;;;6.32;;
12118;SDS011;6123;48.864;9.200;2022-07-10T00:57:07;7.13;;;6.53;;
12118;SDS011;6123;48.864;9.200;2022-07-10T00:59:34;6.90;;;6.30;;
12118;SDS011;6123;48.864;9.200;2022-07-10T01:02:03;6.97;;;6.45;;
12118;SDS011;6123;48.864;9.200;2022-07-10T01:04:30;8.50;;;6.78;;
12118;SDS011;6123;48.864;9.200;2022-07-10T01:06:58;7.25;;;6.65;;
12118;SDS011;6123;48.864;9.200;2022-07-10T01:09:25;7.45;;;6.85;;
12118;SDS011;6123;48.864;9.200;2022-07-10T01:11:51;7.57;;;6.88;;
12118;SDS011;6123;48.864;9.200;2022-07-10T01:14:17;7.45;;;6.80;;
12118;SDS011;6123;48.864;9.200;2022-07-10T01:16:43;7.60;;;6.95;;
12118;SDS011;6123;48.864;9.200;2022-07-10T01:19:08;7.10;;;6.50;;
12118;SDS011;6123;48.864;9.200;2022-07-10T01:21:36;8.68;;;7.97;;
12118;SDS011;6123;48.864;9.200;2022-07-10T01:24:09;7.72;;;7.13;;
12118;SDS011;6123;48.864;9.200;2022-07-10T01:26:36;7.97;;;7.38;;
12118;SDS011;6123;48.864;9.200;2022-07-10T01:29:08;8.18;;;7.40;;
12118;SDS011;6123;48.864;9.200;2022-07-10T01:31:36;8.30;;;7.60;;
12118;SDS011;6123;48.864;9.200;2022-07-10T01:34:04;7.65;;;7.15;;
12118;SDS011;6123;48.864;9.200;2022-07-10T01:36:33;8.45;;;7.72;;
12118;SDS011;6123;48.864;9.200;2022-07-10T01:38:59;9.80;;;8.90;;
12118;SDS011;6123;48.864;9.200;2022-07-10T01:41:25;10.80;;;8.38;;
12118;SDS011;6123;48.864;9.200;2022-07-10T01:43:51;10.82;;;9.82;;
12118;SDS011;6123;48.864;9.200;2022-07-10T01:46:17;9.48;;;8.77;;
12118;SDS011;6123;48.864;9.200;2022-07-10T01:48:44;9.50;;;8.80;;
12118;SDS011;6123;48.864;9.200;2022-07-10T01:51:10;9.18;;;8.25;;
12118;SDS011;6123;48.864;9.200;2022-07-10T01:53:36;8.98;;;8.27;;
12118;SDS011;6123;48.864;9.200;2022-07-10T01:56:03;9.07;;;8.38;;
12118;SDS011;6123;48.864;9.200;2022-07-10T01:58:31;10.32;;;9.45;;
12118;SDS011;6123;48.864;9.200;2022-07-10T02:00:57;10.68;;;9.70;;
12118;SDS011;6123;48.864;9.200;2022-07-10T02:03:23;10.25;;;9.35;;
12118;SDS011;6123;48.864;9.200;2022-07-10T02:06:10;10.02;;;9.10;;
12118;SDS011;6123;48.864;9.200;2022-07-10T02:08:38;9.40;;;8.57;;
12118;SDS011;6123;48.864;9.200;2022-07-10T02:11:06;9.95;;;9.05;;
12118;SDS011;6123;48.864;9.200;2022-07-10T02:13:34;10.18;;;9.48;;
12118;SDS011;6123;48.864;9.200;2022-07-10T02:15:59;10.77;;;9.57;;
12118;SDS011;6123;48.864;9.200;2022-07-10T02:18:25;10.40;;;9.45;;
12118;SDS011;6123;48.864;9.200;2022-07-10T02:20:51;9.98;;;9.20;;
12118;SDS011;6123;48.864;9.200;2022-07-10T02:23:17;11.35;;;10.35;;
12118;SDS011;6123;48.864;9.200;2022-07-10T02:25:43;11.88;;;10.98;;
12118;SDS011;6123;48.864;9.200;2022-07-10T02:28:08;12.02;;;10.98;;
12118;SDS011;6123;48.864;9.200;2022-07-10T02:30:34;13.55;;;11.27;;
12118;SDS011;6123;48.864;9.200;2022-07-10T02:33:03;13.68;;;12.13;;
12118;SDS011;6123;48.864;9.200;2022-07-10T02:35:28;13.18;;;11.95;;
12118;SDS011;6123;48.864;9.200;2022-07-10T02:37:57;13.32;;;12.13;;
12118;SDS011;6123;48.864;9.200;2022-07-10T02:40:22;13.75;;;12.55;;
12118;SDS011;6123;48.864;9.200;2022-07-10T02:42:48;13.52;;;12.15;;
12118;SDS011;6123;48.864;9.200;2022-07-10T02:45:18;13.82;;;12.73;;
12118;SDS011;6123;48.864;9.200;2022-07-10T02:47:43;15.50;;;14.15;;
12118;SDS011;6123;48.864;9.200;2022-07-10T02:50:09;12.68;;;11.68;;
12118;SDS011;6123;48.864;9.200;2022-07-10T02:52:35;13.32;;;12.23;;
12118;SDS011;6123;48.864;9.200;2022-07-10T02:55:00;11.65;;;10.65;;
12118;SDS011;6123;48.864;9.200;2022-07-10T02:57:26;11.35;;;10.40;;
12118;SDS011;6123;48.864;9.200;2022-07-10T02:59:53;12.25;;;11.25;;
12118;SDS011;6123;48.864;9.200;2022-07-10T03:02:18;12.65;;;11.60;;
12118;SDS011;6123;48.864;9.200;2022-07-10T03:04:44;12.27;;;11.18;;
12118;SDS011;6123;48.864;9.200;2022-07-10T03:07:09;11.80;;;10.98;;
12118;SDS011;6123;48.864;9.200;2022-07-10T03:09:37;12.68;;;11.57;;
12118;SDS011;6123;48.864;9.200;2022-07-10T03:12:03;13.13;;;11.95;;
12118;SDS011;6123;48.864;9.200;2022-07-10T03:14:30;12.30;;;10.90;;
12118;SDS011;6123;48.864;9.200;2022-07-10T03:16:55;12.23;;;11.15;;
12118;SDS011;6123;48.864;9.200;2022-07-10T03:19:21;12.57;;;11.35;;
12118;SDS011;6123;48.864;9.200;2022-07-10T03:21:47;10.95;;;10.13;;
12118;SDS011;6123;48.864;9.200;2022-07-10T03:24:12;12.57;;;11.48;;
12118;SDS011;6123;48.864;9.200;2022-07-10T03:26:38;12.35;;;11.30;;
12118;SDS011;6123;48.864;9.200;2022-07-10T03:29:03;11.65;;;10.73;;
12118;SDS011;6123;48.864;9.200;2022-07-10T03:31:29;12.18;;;11.18;;
12118;SDS011;6123;48.864;9.200;2022-07-10T03:33:55;12.65;;;11.43;;
12118;SDS011;6123;48.864;9.200;2022-07-10T03:36:22;12.75;;;11.75;;
12118;SDS011;6123;48.864;9.200;2022-07-10T03:38:48;12.40;;;11.05;;
12118;SDS011;6123;48.864;9.200;2022-07-10T03:41:14;10.35;;;9.45;;
12118;SDS011;6123;48.864;9.200;2022-07-10T03:43:40;12.35;;;11.25;;
12118;SDS011;6123;48.864;9.200;2022-07-10T03:46:08;10.43;;;9.52;;
12118;SDS011;6123;48.864;9.200;2022-07-10T03:48:33;10.48;;;9.52;;
12118;SDS011;6123;48.864;9.200;2022-07-10T03:50:59;11.10;;;9.98;;
12118;SDS011;6123;48.864;9.200;2022-07-10T03:53:25;11.15;;;10.13;;
12118;SDS011;6123;48.864;9.200;2022-07-10T03:55:51;11.13;;;10.18;;
12118;SDS011;6123;48.864;9.200;2022-07-10T03:58:16;10.43;;;9.52;;
12118;SDS011;6123;48.864;9.200;2022-07-10T04:00:42;10.82;;;9.82;;
12118;SDS011;6123;48.864;9.200;2022-07-10T04:03:08;10.45;;;9.55;;
12118;SDS011;6123;48.864;9.200;2022-07-10T04:05:34;10.48;;;9.57;;
12118;SDS011;6123;48.864;9.200;2022-07-10T04:08:00;11.55;;;10.25;;
12118;SDS011;6123;48.864;9.200;2022-07-10T04:10:27;10.80;;;9.88;;
12118;SDS011;6123;48.864;9.200;2022-07-10T04:12:54;9.50;;;8.60;;
12118;SDS011;6123;48.864;9.200;2022-07-10T04:15:20;9.35;;;8.50;;
12118;SDS011;6123;48.864;9.200;2022-07-10T04:17:47;9.25;;;8.30;;
12118;SDS011;6123;48.864;9.200;2022-07-10T04:20:13;7.38;;;6.88;;
12118;SDS011;6123;48.864;9.200;2022-07-10T04:22:39;7.65;;;7.05;;
12118;SDS011;6123;48.864;9.200;2022-07-10T04:25:05;7.93;;;7.30;;
12118;SDS011;6123;48.864;9.200;2022-07-10T04:27:35;7.40;;;6.70;;
12118;SDS011;6123;48.864;9.200;2022-07-10T04:30:03;8.00;;;7.28;;
12118;SDS011;6123;48.864;9.200;2022-07-10T04:32:32;7.60;;;7.00;;
12118;SDS011;6123;48.864;9.200;2022-07-10T04:34:58;8.15;;;7.53;;
12118;SDS011;6123;48.864;9.200;2022-07-10T04:37:24;7.25;;;6.65;;
12118;SDS011;6123;48.864;9.200;2022-07-10T04:39:50;7.85;;;7.15;;
12118;SDS011;6123;48.864;9.200;2022-07-10T04:42:15;7.60;;;7.00;;
12118;SDS011;6123;48.864;9.200;2022-07-10T04:44:41;7.82;;;7.00;;
12118;SDS011;6123;48.864;9.200;2022-07-10T04:47:07;7.30;;;6.60;;
12118;SDS011;6123;48.864;9.200;2022-07-10T04:49:33;7.63;;;7.00;;
12118;SDS011;6123;48.864;9.200;2022-07-10T04:51:59;7.25;;;6.75;;
12118;SDS011;6123;48.864;9.200;2022-07-10T04:54:25;8.85;;;8.05;;
12118;SDS011;6123;48.864;9.200;2022-07-10T04:56:50;7.75;;;7.05;;
12118;SDS011;6123;48.864;9.200;2022-07-10T04:59:18;6.57;;;5.97;;
12118;SDS011;6123;48.864;9.200;2022-07-10T05:01:46;6.30;;;5.72;;
12118;SDS011;6123;48.864;9.200;2022-07-10T05:04:12;6.60;;;5.97;;
12118;SDS011;6123;48.864;9.200;2022-07-10T05:06:38;6.18;;;5.68;;
12118;SDS011;6123;48.864;9.200;2022-07-10T05:09:03;6.22;;;5.25;;
12118;SDS011;6123;48.864;9.200;2022-07-10T05:11:29;6.50;;;5.82;;
12118;SDS011;6123;48.864;9.200;2022-07-10T05:13:56;5.35;;;4.95;;
12118;SDS011;6123;48.864;9.200;2022-07-10T05:16:23;5.45;;;4.97;;
12118;SDS011;6123;48.864;9.200;2022-07-10T05:18:51;5.95;;;5.35;;
12118;SDS011;6123;48.864;9.200;2022-07-10T05:21:17;7.63;;;4.43;;
12118;SDS011;6123;48.864;9.200;2022-07-10T05:23:43;4.65;;;4.18;;
12118;SDS011;6123;48.864;9.200;2022-07-10T05:26:11;4.47;;;4.07;;
12118;SDS011;6123;48.864;9.200;2022-07-10T05:28:37;4.40;;;4.00;;
12118;SDS011;6123;48.864;9.200;2022-07-10T05:31:02;4.80;;;4.40;;
12118;SDS011;6123;48.864;9.200;2022-07-10T05:33:30;5.03;;;3.50;;
12118;SDS011;6123;48.864;9.200;2022-07-10T05:35:57;3.95;;;3.60;;
12118;SDS011;6123;48.864;9.200;2022-07-10T05:38:25;6.07;;;3.80;;
12118;SDS011;6123;48.864;9.200;2022-07-10T05:40:51;4.30;;;3.83;;
12118;SDS011;6123;48.864;9.200;2022-07-10T05:43:18;3.53;;;3.20;;
12118;SDS011;6123;48.864;9.200;2022-07-10T05:45:46;4.03;;;3.00;;
12118;SDS011;6123;48.864;9.200;2022-07-10T05:48:12;6.32;;;3.10;;
12118;SDS011;6123;48.864;9.200;2022-07-10T05:50:37;3.42;;;2.88;;
12118;SDS011;6123;48.864;9.200;2022-07-10T05:53:03;4.00;;;2.85;;
12118;SDS011;6123;48.864;9.200;2022-07-10T05:55:31;3.78;;;2.97;;
12118;SDS011;6123;48.864;9.200;2022-07-10T05:57:57;3.22;;;2.90;;
12118;SDS011;6123;48.864;9.200;2022-07-10T06:00:24;3.10;;;2.90;;
12118;SDS011;6123;48.864;9.200;2022-07-10T06:02:49;4.00;;;3.25;;
12118;SDS011;6123;48.864;9.200;2022-07-10T06:05:15;6.93;;;3.08;;
12118;SDS011;6123;48.864;9.200;2022-07-10T06:07:41;3.60;;;3.20;;
12118;SDS011;6123;48.864;9.200;2022-07-10T06:10:06;4.35;;;3.38;;
12118;SDS011;6123;48.864;9.200;2022-07-10T06:12:32;3.72;;;3.40;;
12118;SDS011;6123;48.864;9.200;2022-07-10T06:14:58;3.13;;;2.83;;
12118;SDS011;6123;48.864;9.200;2022-07-10T06:17:24;4.03;;;3.67;;
12118;SDS011;6123;48.864;9.200;2022-07-10T06:19:52;4.82;;;3.63;;
12118;SDS011;6123;48.864;9.200;2022-07-10T06:22:19;4.43;;;3.20;;
12118;SDS011;6123;48.864;9.200;2022-07-10T06:24:58;3.53;;;3.22;;
12118;SDS011;6123;48.864;9.200;2022-07-10T06:27:25;3.35;;;3.03;;
12118;SDS011;6123;48.864;9.200;2022-07-10T06:29:55;4.90;;;2.97;;
12118;SDS011;6123;48.864;9.200;2022-07-10T06:32:22;4.32;;;2.67;;
12118;SDS011;6123;48.864;9.200;2022-07-10T06:34:49;4.03;;;3.35;;
12118;SDS011;6123;48.864;9.200;2022-07-10T06:37:15;4.72;;;3.05;;
12118;SDS011;6123;48.864;9.200;2022-07-10T06:39:41;5.80;;;3.00;;
12118;SDS011;6123;48.864;9.200;2022-07-10T06:42:06;4.97;;;2.40;;
12118;SDS011;6123;48.864;9.200;2022-07-10T06:44:32;3.42;;;2.67;;
12118;SDS011;6123;48.864;9.200;2022-07-10T06:47:00;2.85;;;2.45;;
12118;SDS011;6123;48.864;9.200;2022-07-10T06:49:46;3.15;;;2.70;;
12118;SDS011;6123;48.864;9.200;2022-07-10T06:52:13;3.63;;;2.45;;
12118;SDS011;6123;48.864;9.200;2022-07-10T06:54:40;3.38;;;3.05;;
12118;SDS011;6123;48.864;9.200;2022-07-10T06:57:09;3.65;;;2.17;;
12118;SDS011;6123;48.864;9.200;2022-07-10T06:59:34;3.55;;;2.33;;
12118;SDS011;6123;48.864;9.200;2022-07-10T07:02:00;2.30;;;2.10;;
12118;SDS011;6123;48.864;9.200;2022-07-10T07:04:31;3.10;;;2.35;;
12118;SDS011;6123;48.864;9.200;2022-07-10T07:06:56;4.45;;;2.35;;
12118;SDS011;6123;48.864;9.200;2022-07-10T07:09:24;3.33;;;2.33;;
12118;SDS011;6123;48.864;9.200;2022-07-10T07:11:50;3.28;;;2.45;;
12118;SDS011;6123;48.864;9.200;2022-07-10T07:14:18;4.18;;;2.47;;
12118;SDS011;6123;48.864;9.200;2022-07-10T07:16:43;2.60;;;2.40;;
12118;SDS011;6123;48.864;9.200;2022-07-10T07:19:23;3.20;;;2.28;;
12118;SDS011;6123;48.864;9.200;2022-07-10T07:21:56;2.60;;;2.38;;
12118;SDS011;6123;48.864;9.200;2022-07-10T07:24:41;4.75;;;2.45;;
12118;SDS011;6123;48.864;9.200;2022-07-10T07:27:07;5.18;;;2.63;;
12118;SDS011;6123;48.864;9.200;2022-07-10T07:29:33;3.80;;;2.20;;
12118;SDS011;6123;48.864;9.200;2022-07-10T07:31:59;2.33;;;2.13;;
12118;SDS011;6123;48.864;9.200;2022-07-10T07:34:25;3.28;;;2.20;;
12118;SDS011;6123;48.864;9.200;2022-07-10T07:36:51;2.97;;;2.28;;
12118;SDS011;6123;48.864;9.200;2022-07-10T07:39:16;3.08;;;2.30;;
12118;SDS011;6123;48.864;9.200;2022-07-10T07:41:42;3.55;;;2.10;;
12118;SDS011;6123;48.864;9.200;2022-07-10T07:44:08;3.58;;;1.90;;
12118;SDS011;6123;48.864;9.200;2022-07-10T07:46:34;2.88;;;2.28;;
12118;SDS011;6123;48.864;9.200;2022-07-10T07:48:59;1.98;;;1.60;;
12118;SDS011;6123;48.864;9.200;2022-07-10T07:51:25;5.15;;;2.20;;
12118;SDS011;6123;48.864;9.200;2022-07-10T07:53:53;3.13;;;1.98;;
12118;SDS011;6123;48.864;9.200;2022-07-10T07:56:19;1.83;;;1.70;;
12118;SDS011;6123;48.864;9.200;2022-07-10T07:58:44;3.22;;;1.80;;
12118;SDS011;6123;48.864;9.200;2022-07-10T08:01:10;2.90;;;1.92;;
12118;SDS011;6123;48.864;9.200;2022-07-10T08:03:36;3.05;;;2.22;;
12118;SDS011;6123;48.864;9.200;2022-07-10T08:06:01;2.22;;;1.63;;
12118;SDS011;6123;48.864;9.200;2022-07-10T08:08:29;3.53;;;1.55;;
12118;SDS011;6123;48.864;9.200;2022-07-10T08:10:55;2.13;;;1.50;;
12118;SDS011;6123;48.864;9.200;2022-07-10T08:13:21;2.85;;;1.58;;
12118;SDS011;6123;48.864;9.200;2022-07-10T08:15:49;1.88;;;1.70;;
12118;SDS011;6123;48.864;9.200;2022-07-10T08:18:14;2.15;;;1.33;;
12118;SDS011;6123;48.864;9.200;2022-07-10T08:20:40;5.15;;;1.90;;
12118;SDS011;6123;48.864;9.200;2022-07-10T08:23:06;2.35;;;1.70;;
12118;SDS011;6123;48.864;9.200;2022-07-10T08:25:31;3.08;;;1.60;;
12118;SDS011;6123;48.864;9.200;2022-07-10T08:28:04;2.50;;;1.63;;
12118;SDS011;6123;48.864;9.200;2022-07-10T08:30:35;4.70;;;1.80;;
12118;SDS011;6123;48.864;9.200;2022-07-10T08:33:00;4.22;;;1.80;;
12118;SDS011;6123;48.864;9.200;2022-07-10T08:35:26;5.57;;;1.83;;
12118;SDS011;6123;48.864;9.200;2022-07-10T08:37:52;2.63;;;1.70;;
12118;SDS011;6123;48.864;9.200;2022-07-10T08:40:19;2.80;;;1.73;;
12118;SDS011;6123;48.864;9.200;2022-07-10T08:42:46;3.22;;;2.03;;
12118;SDS011;6123;48.864;9.200;2022-07-10T08:45:12;2.60;;;1.83;;
12118;SDS011;6123;48.864;9.200;2022-07-10T08:47:39;2.20;;;1.88;;
12118;SDS011;6123;48.864;9.200;2022-07-10T08:52:42;2.78;;;1.52;;
12118;SDS011;6123;48.864;9.200;2022-07-10T08:55:13;2.42;;;1.70;;
12118;SDS011;6123;48.864;9.200;2022-07-10T08:57:39;4.35;;;1.70;;
12118;SDS011;6123;48.864;9.200;2022-07-10T09:00:08;2.35;;;1.80;;
12118;SDS011;6123;48.864;9.200;2022-07-10T09:02:34;4.38;;;1.67;;
12118;SDS011;6123;48.864;9.200;2022-07-10T09:05:02;1.52;;;1.33;;
12118;SDS011;6123;48.864;9.200;2022-07-10T09:07:36;2.92;;;1.58;;
12118;SDS011;6123;48.864;9.200;2022-07-10T09:10:08;4.32;;;1.60;;
12118;SDS011;6123;48.864;9.200;2022-07-10T09:12:54;2.42;;;1.42;;
12118;SDS011;6123;48.864;9.200;2022-07-10T09:15:22;2.13;;;1.27;;
12118;SDS011;6123;48.864;9.200;2022-07-10T09:18:04;3.25;;;1.52;;
12118;SDS011;6123;48.864;9.200;2022-07-10T09:20:36;1.80;;;1.50;;
12118;SDS011;6123;48.864;9.200;2022-07-10T09:25:45;3.03;;;1.52;;
12118;SDS011;6123;48.864;9.200;2022-07-10T09:28:13;2.22;;;1.65;;
12118;SDS011;6123;48.864;9.200;2022-07-10T09:30:41;2.58;;;1.60;;
12118;SDS011;6123;48.864;9.200;2022-07-10T09:33:23;1.42;;;1.33;;
12118;SDS011;6123;48.864;9.200;2022-07-10T09:43:50;5.97;;;1.60;;
12118;SDS011;6123;48.864;9.200;2022-07-10T09:46:18;2.80;;;1.60;;
12118;SDS011;6123;48.864;9.200;2022-07-10T09:48:46;1.92;;;1.70;;
12118;SDS011;6123;48.864;9.200;2022-07-10T09:51:12;1.83;;;1.35;;
12118;SDS011;6123;48.864;9.200;2022-07-10T09:53:42;1.50;;;1.40;;
12118;SDS011;6123;48.864;9.200;2022-07-10T09:56:09;2.55;;;1.70;;
12118;SDS011;6123;48.864;9.200;2022-07-10T09:58:36;2.58;;;1.52;;
12118;SDS011;6123;48.864;9.200;2022-07-10T10:01:03;1.98;;;1.50;;
12118;SDS011;6123;48.864;9.200;2022-07-10T10:03:36;5.75;;;2.92;;
12118;SDS011;6123;48.864;9.200;2022-07-10T10:06:24;3.20;;;2.90;;
12118;SDS011;6123;48.864;9.200;2022-07-10T10:09:04;2.50;;;1.85;;
12118;SDS011;6123;48.864;9.200;2022-07-10T10:11:48;1.67;;;1.48;;
12118;SDS011;6123;48.864;9.200;2022-07-10T10:14:17;1.40;;;1.30;;
12118;SDS011;6123;48.864;9.200;2022-07-10T10:16:46;2.13;;;1.42;;
12118;SDS011;6123;48.864;9.200;2022-07-10T10:19:15;2.05;;;1.33;;
12118;SDS011;6123;48.864;9.200;2022-07-10T10:22:03;1.85;;;1.10;;
12118;SDS011;6123;48.864;9.200;2022-07-10T10:24:32;1.67;;;1.40;;
12118;SDS011;6123;48.864;9.200;2022-07-10T10:26:58;5.93;;;5.40;;
12118;SDS011;6123;48.864;9.200;2022-07-10T10:29:26;1.55;;;1.40;;
12118;SDS011;6123;48.864;9.200;2022-07-10T10:31:52;10.23;;;9.18;;
12118;SDS011;6123;48.864;9.200;2022-07-10T10:34:38;2.55;;;1.60;;
12118;SDS011;6123;48.864;9.200;2022-07-10T10:37:27;2.45;;;2.25;;
12118;SDS011;6123;48.864;9.200;2022-07-10T10:39:55;14.27;;;12.90;;
12118;SDS011;6123;48.864;9.200;2022-07-10T10:42:32;3.92;;;2.47;;
12118;SDS011;6123;48.864;9.200;2022-07-10T10:53:22;7.25;;;6.47;;
12118;SDS011;6123;48.864;9.200;2022-07-10T10:58:25;2.90;;;1.70;;
12118;SDS011;6123;48.864;9.200;2022-07-10T11:01:00;2.30;;;1.85;;
12118;SDS011;6123;48.864;9.200;2022-07-10T11:12:11;3.28;;;3.03;;
12118;SDS011;6123;48.864;9.200;2022-07-10T11:14:45;1.60;;;1.50;;
12118;SDS011;6123;48.864;9.200;2022-07-10T11:17:13;2.30;;;1.38;;
12118;SDS011;6123;48.864;9.200;2022-07-10T11:19:39;4.10;;;1.77;;
12118;SDS011;6123;48.864;9.200;2022-07-10T11:30:49;2.83;;;1.48;;
12118;SDS011;6123;48.864;9.200;2022-07-10T11:33:16;1.60;;;1.50;;
12118;SDS011;6123;48.864;9.200;2022-07-10T11:35:45;3.63;;;1.70;;
12118;SDS011;6123;48.864;9.200;2022-07-10T11:38:12;3.63;;;1.60;;
12118;SDS011;6123;48.864;9.200;2022-07-10T11:40:43;1.55;;;1.20;;
12118;SDS011;6123;48.864;9.200;2022-07-10T11:43:08;1.92;;;1.40;;
12118;SDS011;6123;48.864;9.200;2022-07-10T11:45:38;2.95;;;1.45;;
12118;SDS011;6123;48.864;9.200;2022-07-10T11:48:05;1.48;;;0.93;;
12118;SDS011;6123;48.864;9.200;2022-07-10T11:50:36;1.77;;;1.48;;
12118;SDS011;6123;48.864;9.200;2022-07-10T11:53:03;1.88;;;1.30;;
12118;SDS011;6123;48.864;9.200;2022-07-10T11:55:29;3.17;;;1.40;;
12118;SDS011;6123;48.864;9.200;2022-07-10T11:57:57;1.38;;;1.10;;
12118;SDS011;6123;48.864;9.200;2022-07-10T12:00:29;3.08;;;1.30;;
12118;SDS011;6123;48.864;9.200;2022-07-10T12:02:56;1.40;;;0.88;;
12118;SDS011;6123;48.864;9.200;2022-07-10T12:05:39;1.02;;;0.90;;
12118;SDS011;6123;48.864;9.200;2022-07-10T12:08:06;2.67;;;1.20;;
12118;SDS011;6123;48.864;9.200;2022-07-10T12:10:33;3.10;;;1.40;;
12118;SDS011;6123;48.864;9.200;2022-07-10T12:13:03;4.43;;;1.15;;
12118;SDS011;6123;48.864;9.200;2022-07-10T12:15:31;3.28;;;1.33;;
12118;SDS011;6123;48.864;9.200;2022-07-10T12:18:05;1.40;;;1.30;;
12118;SDS011;6123;48.864;9.200;2022-07-10T12:20:40;2.95;;;1.48;;
12118;SDS011;6123;48.864;9.200;2022-07-10T12:23:10;2.20;;;1.30;;
12118;SDS011;6123;48.864;9.200;2022-07-10T12:25:39;2.03;;;1.02;;
12118;SDS011;6123;48.864;9.200;2022-07-10T12:28:07;1.75;;;1.15;;
12118;SDS011;6123;48.864;9.200;2022-07-10T12:30:42;3.15;;;1.40;;
12118;SDS011;6123;48.864;9.200;2022-07-10T12:33:14;2.30;;;1.23;;
12118;SDS011;6123;48.864;9.200;2022-07-10T12:35:50;1.30;;;1.20;;
12118;SDS011;6123;48.864;9.200;2022-07-10T12:38:26;2.45;;;1.48;;
12118;SDS011;6123;48.864;9.200;2022-07-10T12:41:11;1.90;;;1.10;;
12118;SDS011;6123;48.864;9.200;2022-07-10T12:43:39;1.75;;;1.50;;
12118;SDS011;6123;48.864;9.200;2022-07-10T12:46:20;2.00;;;1.20;;
12118;SDS011;6123;48.864;9.200;2022-07-10T12:49:08;1.60;;;1.10;;
12118;SDS011;6123;48.864;9.200;2022-07-10T12:54:36;2.25;;;1.17;;
12118;SDS011;6123;48.864;9.200;2022-07-10T12:57:02;2.05;;;1.23;;
12118;SDS011;6123;48.864;9.200;2022-07-10T12:59:32;2.97;;;1.40;;
12118;SDS011;6123;48.864;9.200;2022-07-10T13:02:20;4.20;;;1.55;;
12118;SDS011;6123;48.864;9.200;2022-07-10T13:04:53;2.22;;;1.10;;
12118;SDS011;6123;48.864;9.200;2022-07-10T13:07:32;3.17;;;1.60;;
12118;SDS011;6123;48.864;9.200;2022-07-10T13:10:00;1.75;;;1.33;;
12118;SDS011;6123;48.864;9.200;2022-07-10T13:12:29;1.80;;;1.45;;
12118;SDS011;6123;48.864;9.200;2022-07-10T13:14:55;1.38;;;1.00;;
12118;SDS011;6123;48.864;9.200;2022-07-10T13:17:21;3.10;;;1.20;;
12118;SDS011;6123;48.864;9.200;2022-07-10T13:19:48;1.30;;;1.08;;
12118;SDS011;6123;48.864;9.200;2022-07-10T13:22:16;2.83;;;1.42;;
12118;SDS011;6123;48.864;9.200;2022-07-10T13:24:42;1.65;;;1.05;;
12118;SDS011;6123;48.864;9.200;2022-07-10T13:27:07;3.30;;;1.45;;
12118;SDS011;6123;48.864;9.200;2022-07-10T13:29:33;3.50;;;1.13;;
12118;SDS011;6123;48.864;9.200;2022-07-10T13:31:59;3.15;;;0.90;;
12118;SDS011;6123;48.864;9.200;2022-07-10T13:34:25;2.88;;;1.58;;
12118;SDS011;6123;48.864;9.200;2022-07-10T13:36:51;1.25;;;1.13;;
12118;SDS011;6123;48.864;9.200;2022-07-10T13:39:19;1.65;;;0.98;;
12118;SDS011;6123;48.864;9.200;2022-07-10T13:41:44;1.13;;;1.02;;
12118;SDS011;6123;48.864;9.200;2022-07-10T13:44:10;1.65;;;1.20;;
12118;SDS011;6123;48.864;9.200;2022-07-10T13:46:36;3.95;;;1.17;;
12118;SDS011;6123;48.864;9.200;2022-07-10T13:49:04;2.33;;;1.17;;
12118;SDS011;6123;48.864;9.200;2022-07-10T13:51:30;2.28;;;1.25;;
12118;SDS011;6123;48.864;9.200;2022-07-10T13:53:56;2.75;;;1.40;;
12118;SDS011;6123;48.864;9.200;2022-07-10T13:56:22;1.73;;;0.95;;
12118;SDS011;6123;48.864;9.200;2022-07-10T13:58:49;1.27;;;1.10;;
12118;SDS011;6123;48.864;9.200;2022-07-10T14:01:14;2.35;;;1.10;;
12118;SDS011;6123;48.864;9.200;2022-07-10T14:03:40;2.40;;;0.90;;
12118;SDS011;6123;48.864;9.200;2022-07-10T14:06:06;1.92;;;1.10;;
12118;SDS011;6123;48.864;9.200;2022-07-10T14:08:32;1.48;;;0.90;;
12118;SDS011;6123;48.864;9.200;2022-07-10T14:10:58;3.10;;;1.23;;
12118;SDS011;6123;48.864;9.200;2022-07-10T14:13:23;1.58;;;1.25;;
12118;SDS011;6123;48.864;9.200;2022-07-10T14:15:49;1.95;;;0.98;;
12118;SDS011;6123;48.864;9.200;2022-07-10T14:18:15;1.70;;;1.05;;
12118;SDS011;6123;48.864;9.200;2022-07-10T14:21:00;1.40;;;1.10;;
12118;SDS011;6123;48.864;9.200;2022-07-10T14:23:31;1.48;;;1.08;;
12118;SDS011;6123;48.864;9.200;2022-07-10T14:25:58;1.60;;;1.10;;
12118;SDS011;6123;48.864;9.200;2022-07-10T14:28:24;1.95;;;0.90;;
12118;SDS011;6123;48.864;9.200;2022-07-10T14:30:49;1.42;;;1.08;;
12118;SDS011;6123;48.864;9.200;2022-07-10T14:33:17;4.03;;;1.10;;
12118;SDS011;6123;48.864;9.200;2022-07-10T14:35:43;2.20;;;1.33;;
12118;SDS011;6123;48.864;9.200;2022-07-10T14:38:09;2.10;;;1.17;;
12118;SDS011;6123;48.864;9.200;2022-07-10T14:40:36;2.58;;;1.50;;
12118;SDS011;6123;48.864;9.200;2022-07-10T14:43:02;1.60;;;1.13;;
12118;SDS011;6123;48.864;9.200;2022-07-10T14:45:30;1.35;;;1.05;;
12118;SDS011;6123;48.864;9.200;2022-07-10T14:47:56;2.67;;;0.95;;
12118;SDS011;6123;48.864;9.200;2022-07-10T14:50:22;1.55;;;1.00;;
12118;SDS011;6123;48.864;9.200;2022-07-10T14:52:48;1.80;;;1.40;;
12118;SDS011;6123;48.864;9.200;2022-07-10T14:55:14;1.52;;;1.20;;
12118;SDS011;6123;48.864;9.200;2022-07-10T14:57:40;1.00;;;0.90;;
12118;SDS011;6123;48.864;9.200;2022-07-10T15:00:05;1.75;;;1.00;;
12118;SDS011;6123;48.864;9.200;2022-07-10T15:02:32;2.10;;;0.80;;
12118;SDS011;6123;48.864;9.200;2022-07-10T15:04:57;1.88;;;1.23;;
12118;SDS011;6123;48.864;9.200;2022-07-10T15:07:23;2.63;;;1.00;;
12118;SDS011;6123;48.864;9.200;2022-07-10T15:09:49;2.13;;;1.17;;
12118;SDS011;6123;48.864;9.200;2022-07-10T15:12:14;1.33;;;1.00;;
12118;SDS011;6123;48.864;9.200;2022-07-10T15:14:40;2.40;;;0.98;;
12118;SDS011;6123;48.864;9.200;2022-07-10T15:17:06;2.42;;;1.15;;
12118;SDS011;6123;48.864;9.200;2022-07-10T15:19:34;2.33;;;1.20;;
12118;SDS011;6123;48.864;9.200;2022-07-10T15:21:59;1.80;;;0.80;;
12118;SDS011;6123;48.864;9.200;2022-07-10T15:24:25;0.75;;;0.75;;
12118;SDS011;6123;48.864;9.200;2022-07-10T15:26:51;2.00;;;1.33;;
12118;SDS011;6123;48.864;9.200;2022-07-10T15:29:16;1.42;;;1.10;;
12118;SDS011;6123;48.864;9.200;2022-07-10T15:31:51;2.30;;;1.50;;
12118;SDS011;6123;48.864;9.200;2022-07-10T15:34:17;3.10;;;1.40;;
12118;SDS011;6123;48.864;9.200;2022-07-10T15:36:43;2.13;;;1.10;;
12118;SDS011;6123;48.864;9.200;2022-07-10T15:39:11;2.08;;;1.02;;
12118;SDS011;6123;48.864;9.200;2022-07-10T15:41:39;2.33;;;1.00;;
12118;SDS011;6123;48.864;9.200;2022-07-10T15:44:10;2.95;;;1.30;;
12118;SDS011;6123;48.864;9.200;2022-07-10T15:46:35;2.35;;;1.30;;